Guapore, Brazil
Current Conditions -  °F | °C
As of 10:20 AM on Thursday 29 Jan 2015 (Local Time) from SBCA Reporting Station
Broken Clouds Broken Clouds  
Wind Chill: 70°   Ceiling: 500
Heat Index: 70°   Visibility: 4mi
Dew Point: 68°   Wind: 14mph
Humidity: 94%   Direction: 20°NNE
Pressure: 30"   Gusts: NA
Location:  24.92°S, 52.94°W
Report Text: SBCA 291220Z 02012KT 7000 SCT002 BKN005 BKN070 21/20 Q1016
Loading
Personal Weather Stations






























Interactive Weather Map New forecast layout! Learn more

10-Day Weather Forecast

Advertisements
Track Severe Weather on mobile